ADDS METAR Data INFO
IDs: Format: Raw Decoded Include TAF

Data at: 2113 UTC 22 Oct 2017

KEHR 222056Z AUTO 17010G18KT 10SM SCT046 25/16 A2999 RMK AO2 PK WND 17026/2005 SLP162 T02500161 56017
KEHR 221956Z AUTO 17015G24KT 10SM BKN046 25/16 A3000 RMK AO2 SLP167 T02500156
KEHR 221856Z AUTO 16016G22KT 10SM FEW048 27/16 A3000 RMK AO2 SLP167 T02670161
KEHR 221756Z AUTO 17014G23KT 10SM FEW044 SCT060 25/16 A3004 RMK AO2 PK WND 16028/1705 SLP178 60000 T02500156 10261 20167 56011
KEHR 221656Z AUTO 18013G24KT 10SM FEW055 26/16 A3005 RMK AO2 PK WND 19027/1645 SLP182 T02560156
KEHR 221556Z AUTO 16015G24KT 10SM FEW100 23/16 A3005 RMK AO2 PK WND 16026/1532 SLP184 T02330156
KEHR 221456Z AUTO 15010G15KT 10SM FEW075 SCT090 20/16 A3007 RMK AO2 RAB29E52 SLP190 P0000 60000 T02000156 50003
KEHR 221356Z AUTO 16011KT 10SM FEW060 19/14 A3009 RMK AO2 SLP197 T01890139
KEHR 221256Z AUTO 14006KT 10SM CLR 17/13 A3007 RMK AO2 SLP191 T01720133
KEHR 221156Z AUTO 14005KT 10SM CLR 17/13 A3006 RMK AO2 SLP188 T01670133 10178 20167 50001
KEHR 221056Z AUTO 13008KT 10SM BKN060 17/13 A3006 RMK AO2 SLP188 T01670128
KEHR 220956Z AUTO 11003KT 10SM FEW048 17/13 A3007 RMK AO2 SLP189 T01670133
KEHR 220856Z AUTO 14006KT 10SM CLR 17/13 A3006 RMK AO2 SLP186 T01720133 58012
KEHR 220756Z AUTO 12005KT 10SM CLR 17/14 A3007 RMK AO2 SLP189 T01720139
KEHR 220656Z AUTO 14005KT 10SM CLR 18/14 A3009 RMK AO2 SLP196 T01780139
KEHR 220556Z AUTO 16008KT 10SM CLR 18/14 A3010 RMK AO2 SLP198 T01780144 10222 20178 402610094 56008
KEHR 220456Z AUTO 16009KT 10SM CLR 18/14 A3010 RMK AO2 SLP200 T01830144
KEHR 220356Z AUTO 16010KT 10SM CLR 19/14 A3011 RMK AO2 SLP204 T01890139
KEHR 220256Z AUTO 15008KT 10SM CLR 19/14 A3012 RMK AO2 SLP207 T01940139 56003
KEHR 220156Z AUTO 13006KT 10SM CLR 21/13 A3012 RMK AO2 SLP209 T02060133
KEHR 220056Z AUTO 13008KT 10SM CLR 22/13 A3012 RMK AO2 SLP207 T02170133
KEHR 212356Z AUTO 13006KT 10SM CLR 22/13 A3013 RMK AO2 SLP211 T02220128 10261 20222 53002
KEHR 212256Z AUTO 14006KT 10SM SCT055 23/13 A3012 RMK AO2 SLP208 T02330133
KEHR 212156Z AUTO 15007KT 10SM CLR 24/13 A3012 RMK AO2 SLP209 T02440133
KEHR 212056Z AUTO 16009KT 10SM FEW050 24/13 A3012 RMK AO2 SLP209 T02440133 56012
KEHR 211956Z AUTO 17011KT 10SM CLR 25/14 A3013 RMK AO2 SLP209 T02500139
KEHR 211856Z AUTO 16007KT 10SM CLR 25/13 A3014 RMK AO2 SLP213 T02500133
KEHR 211756Z AUTO 18007KT 10SM CLR 24/12 A3016 RMK AO2 SLP221 T02390122 10250 20128 58013
KEHR 211656Z AUTO 19009KT 10SM FEW050 24/11 A3018 RMK AO2 SLP228 T02390106
KEHR 211556Z AUTO 19010KT 10SM FEW055 21/11 A3019 RMK AO2 SLP234 T02110106
KEHR 211456Z AUTO 17007KT 10SM CLR 18/11 A3020 RMK AO2 SLP236 T01780106 51012
KEHR 211356Z AUTO 14004KT 10SM CLR 14/10 A3019 RMK AO2 SLP234 T01440100
KEHR 211256Z AUTO 13003KT 10SM CLR 13/09 A3018 RMK AO2 SLP232 T01330089
KEHR 211156Z AUTO 14005KT 10SM CLR 13/09 A3016 RMK AO2 SLP225 T01280089 10144 20094 51010
KEHR 211056Z AUTO 00000KT 10SM CLR 11/09 A3016 RMK AO2 SLP224 T01060089
KEHR 210956Z AUTO 00000KT 10SM CLR 10/08 A3014 RMK AO2 SLP217 T01000078